sensor_id;sensor_type;location;lat;lon;timestamp;P1;durP1;ratioP1;P2;durP2;ratioP2
84834;SDS011;75078;42.636;23.198;2024-02-21T00:02:19;2.85;;;2.65;;
84834;SDS011;75078;42.636;23.198;2024-02-21T00:04:44;3.28;;;2.58;;
84834;SDS011;75078;42.636;23.198;2024-02-21T00:07:10;3.03;;;2.08;;
84834;SDS011;75078;42.636;23.198;2024-02-21T00:09:35;3.15;;;2.75;;
84834;SDS011;75078;42.636;23.198;2024-02-21T00:12:00;3.65;;;3.00;;
84834;SDS011;75078;42.636;23.198;2024-02-21T00:14:26;2.72;;;2.53;;
84834;SDS011;75078;42.636;23.198;2024-02-21T00:16:51;2.97;;;2.50;;
84834;SDS011;75078;42.636;23.198;2024-02-21T00:19:17;3.20;;;2.90;;
84834;SDS011;75078;42.636;23.198;2024-02-21T00:21:42;2.72;;;2.53;;
84834;SDS011;75078;42.636;23.198;2024-02-21T00:24:07;3.33;;;2.20;;
84834;SDS011;75078;42.636;23.198;2024-02-21T00:26:33;2.40;;;2.17;;
84834;SDS011;75078;42.636;23.198;2024-02-21T00:28:58;3.13;;;2.55;;
84834;SDS011;75078;42.636;23.198;2024-02-21T00:31:23;2.28;;;2.10;;
84834;SDS011;75078;42.636;23.198;2024-02-21T00:33:49;2.92;;;2.70;;
84834;SDS011;75078;42.636;23.198;2024-02-21T00:36:15;2.42;;;2.30;;
84834;SDS011;75078;42.636;23.198;2024-02-21T00:38:41;3.50;;;2.50;;
84834;SDS011;75078;42.636;23.198;2024-02-21T00:41:06;2.63;;;2.42;;
84834;SDS011;75078;42.636;23.198;2024-02-21T00:43:31;4.05;;;2.70;;
84834;SDS011;75078;42.636;23.198;2024-02-21T00:45:57;3.35;;;2.97;;
84834;SDS011;75078;42.636;23.198;2024-02-21T00:48:22;4.70;;;3.13;;
84834;SDS011;75078;42.636;23.198;2024-02-21T00:50:47;3.33;;;3.03;;
84834;SDS011;75078;42.636;23.198;2024-02-21T00:53:13;3.05;;;2.50;;
84834;SDS011;75078;42.636;23.198;2024-02-21T00:55:38;3.63;;;3.33;;
84834;SDS011;75078;42.636;23.198;2024-02-21T00:58:05;6.05;;;3.30;;
84834;SDS011;75078;42.636;23.198;2024-02-21T01:00:30;3.70;;;3.40;;
84834;SDS011;75078;42.636;23.198;2024-02-21T01:02:55;4.35;;;3.00;;
84834;SDS011;75078;42.636;23.198;2024-02-21T01:05:21;3.85;;;3.45;;
84834;SDS011;75078;42.636;23.198;2024-02-21T01:07:47;9.98;;;4.95;;
84834;SDS011;75078;42.636;23.198;2024-02-21T01:10:13;9.80;;;5.53;;
84834;SDS011;75078;42.636;23.198;2024-02-21T01:12:38;8.73;;;6.25;;
84834;SDS011;75078;42.636;23.198;2024-02-21T01:15:03;12.52;;;5.78;;
84834;SDS011;75078;42.636;23.198;2024-02-21T01:17:29;13.32;;;6.30;;
84834;SDS011;75078;42.636;23.198;2024-02-21T01:19:55;11.82;;;5.82;;
84834;SDS011;75078;42.636;23.198;2024-02-21T01:22:20;7.53;;;3.75;;
84834;SDS011;75078;42.636;23.198;2024-02-21T01:24:45;6.25;;;4.25;;
84834;SDS011;75078;42.636;23.198;2024-02-21T01:27:11;5.82;;;3.60;;
84834;SDS011;75078;42.636;23.198;2024-02-21T01:29:36;4.03;;;3.63;;
84834;SDS011;75078;42.636;23.198;2024-02-21T01:32:02;4.47;;;3.95;;
84834;SDS011;75078;42.636;23.198;2024-02-21T01:34:27;6.05;;;4.40;;
84834;SDS011;75078;42.636;23.198;2024-02-21T01:36:52;4.15;;;3.75;;
84834;SDS011;75078;42.636;23.198;2024-02-21T01:39:18;7.07;;;3.92;;
84834;SDS011;75078;42.636;23.198;2024-02-21T01:41:43;7.78;;;4.95;;
84834;SDS011;75078;42.636;23.198;2024-02-21T01:44:09;10.85;;;4.38;;
84834;SDS011;75078;42.636;23.198;2024-02-21T01:46:35;6.72;;;4.25;;
84834;SDS011;75078;42.636;23.198;2024-02-21T01:49:00;7.07;;;4.65;;
84834;SDS011;75078;42.636;23.198;2024-02-21T01:51:26;9.55;;;5.30;;
84834;SDS011;75078;42.636;23.198;2024-02-21T01:53:52;6.07;;;4.70;;
84834;SDS011;75078;42.636;23.198;2024-02-21T01:56:20;8.50;;;5.85;;
84834;SDS011;75078;42.636;23.198;2024-02-21T01:58:45;10.75;;;5.63;;
84834;SDS011;75078;42.636;23.198;2024-02-21T02:01:13;8.63;;;5.30;;
84834;SDS011;75078;42.636;23.198;2024-02-21T02:03:38;10.13;;;5.47;;
84834;SDS011;75078;42.636;23.198;2024-02-21T02:06:07;9.68;;;5.55;;
84834;SDS011;75078;42.636;23.198;2024-02-21T02:08:33;9.77;;;6.93;;
84834;SDS011;75078;42.636;23.198;2024-02-21T02:10:59;8.93;;;6.82;;
84834;SDS011;75078;42.636;23.198;2024-02-21T02:13:24;9.77;;;6.05;;
84834;SDS011;75078;42.636;23.198;2024-02-21T02:15:50;7.53;;;5.53;;
84834;SDS011;75078;42.636;23.198;2024-02-21T02:18:17;11.95;;;8.68;;
84834;SDS011;75078;42.636;23.198;2024-02-21T02:20:43;9.85;;;7.68;;
84834;SDS011;75078;42.636;23.198;2024-02-21T02:23:10;9.07;;;5.90;;
84834;SDS011;75078;42.636;23.198;2024-02-21T02:25:56;11.82;;;8.00;;
84834;SDS011;75078;42.636;23.198;2024-02-21T02:28:22;10.05;;;6.53;;
84834;SDS011;75078;42.636;23.198;2024-02-21T02:30:48;11.60;;;5.90;;
84834;SDS011;75078;42.636;23.198;2024-02-21T02:33:14;10.20;;;6.63;;
84834;SDS011;75078;42.636;23.198;2024-02-21T02:35:39;8.98;;;5.65;;
84834;SDS011;75078;42.636;23.198;2024-02-21T02:38:05;9.02;;;5.88;;
84834;SDS011;75078;42.636;23.198;2024-02-21T02:40:31;10.18;;;6.85;;
84834;SDS011;75078;42.636;23.198;2024-02-21T02:42:58;9.30;;;6.35;;
84834;SDS011;75078;42.636;23.198;2024-02-21T02:45:23;14.48;;;6.47;;
84834;SDS011;75078;42.636;23.198;2024-02-21T02:47:51;12.27;;;7.03;;
84834;SDS011;75078;42.636;23.198;2024-02-21T02:50:16;10.77;;;6.05;;
84834;SDS011;75078;42.636;23.198;2024-02-21T02:52:42;10.68;;;6.38;;
84834;SDS011;75078;42.636;23.198;2024-02-21T02:55:07;9.48;;;5.75;;
84834;SDS011;75078;42.636;23.198;2024-02-21T02:57:32;11.73;;;6.88;;
84834;SDS011;75078;42.636;23.198;2024-02-21T02:59:58;9.63;;;6.55;;
84834;SDS011;75078;42.636;23.198;2024-02-21T03:02:23;8.10;;;5.75;;
84834;SDS011;75078;42.636;23.198;2024-02-21T03:04:49;8.95;;;6.32;;
84834;SDS011;75078;42.636;23.198;2024-02-21T03:07:14;9.32;;;6.40;;
84834;SDS011;75078;42.636;23.198;2024-02-21T03:09:40;11.05;;;6.88;;
84834;SDS011;75078;42.636;23.198;2024-02-21T03:12:08;11.52;;;6.15;;
84834;SDS011;75078;42.636;23.198;2024-02-21T03:14:34;9.48;;;6.05;;
84834;SDS011;75078;42.636;23.198;2024-02-21T03:16:59;12.63;;;9.57;;
84834;SDS011;75078;42.636;23.198;2024-02-21T03:19:25;13.30;;;9.27;;
84834;SDS011;75078;42.636;23.198;2024-02-21T03:21:51;10.88;;;7.38;;
84834;SDS011;75078;42.636;23.198;2024-02-21T03:24:17;10.00;;;6.53;;
84834;SDS011;75078;42.636;23.198;2024-02-21T03:26:43;10.63;;;7.43;;
84834;SDS011;75078;42.636;23.198;2024-02-21T03:29:09;11.18;;;6.70;;
84834;SDS011;75078;42.636;23.198;2024-02-21T03:31:35;9.07;;;6.07;;
84834;SDS011;75078;42.636;23.198;2024-02-21T03:34:00;7.65;;;5.90;;
84834;SDS011;75078;42.636;23.198;2024-02-21T03:36:26;10.90;;;6.57;;
84834;SDS011;75078;42.636;23.198;2024-02-21T03:38:51;10.20;;;7.13;;
84834;SDS011;75078;42.636;23.198;2024-02-21T03:41:16;10.07;;;6.53;;
84834;SDS011;75078;42.636;23.198;2024-02-21T03:43:42;10.88;;;7.28;;
84834;SDS011;75078;42.636;23.198;2024-02-21T03:46:08;9.55;;;6.60;;
84834;SDS011;75078;42.636;23.198;2024-02-21T03:48:33;10.02;;;6.75;;
84834;SDS011;75078;42.636;23.198;2024-02-21T03:50:58;10.10;;;6.53;;
84834;SDS011;75078;42.636;23.198;2024-02-21T03:53:24;10.38;;;6.47;;
84834;SDS011;75078;42.636;23.198;2024-02-21T03:55:49;8.68;;;6.38;;
84834;SDS011;75078;42.636;23.198;2024-02-21T03:58:15;10.70;;;6.88;;
84834;SDS011;75078;42.636;23.198;2024-02-21T04:00:40;10.02;;;7.97;;
84834;SDS011;75078;42.636;23.198;2024-02-21T04:03:06;14.05;;;7.90;;
84834;SDS011;75078;42.636;23.198;2024-02-21T04:05:31;12.63;;;7.05;;
84834;SDS011;75078;42.636;23.198;2024-02-21T04:07:57;16.05;;;8.05;;
84834;SDS011;75078;42.636;23.198;2024-02-21T04:10:22;10.07;;;7.03;;
84834;SDS011;75078;42.636;23.198;2024-02-21T04:12:47;9.82;;;7.57;;
84834;SDS011;75078;42.636;23.198;2024-02-21T04:15:15;13.30;;;8.27;;
84834;SDS011;75078;42.636;23.198;2024-02-21T04:17:41;13.93;;;8.20;;
84834;SDS011;75078;42.636;23.198;2024-02-21T04:20:13;13.85;;;8.27;;
84834;SDS011;75078;42.636;23.198;2024-02-21T04:22:39;13.90;;;8.38;;
84834;SDS011;75078;42.636;23.198;2024-02-21T04:25:05;13.68;;;7.72;;
84834;SDS011;75078;42.636;23.198;2024-02-21T04:27:30;15.90;;;8.77;;
84834;SDS011;75078;42.636;23.198;2024-02-21T04:29:56;16.55;;;8.98;;
84834;SDS011;75078;42.636;23.198;2024-02-21T04:32:22;15.48;;;7.93;;
84834;SDS011;75078;42.636;23.198;2024-02-21T04:34:47;15.23;;;9.05;;
84834;SDS011;75078;42.636;23.198;2024-02-21T04:37:13;15.88;;;8.60;;
84834;SDS011;75078;42.636;23.198;2024-02-21T04:39:38;14.90;;;8.25;;
84834;SDS011;75078;42.636;23.198;2024-02-21T04:42:04;21.70;;;9.82;;
84834;SDS011;75078;42.636;23.198;2024-02-21T04:44:29;17.33;;;8.80;;
84834;SDS011;75078;42.636;23.198;2024-02-21T04:46:54;16.13;;;8.88;;
84834;SDS011;75078;42.636;23.198;2024-02-21T04:49:20;16.52;;;9.13;;
84834;SDS011;75078;42.636;23.198;2024-02-21T04:51:45;13.63;;;8.38;;
84834;SDS011;75078;42.636;23.198;2024-02-21T04:54:10;15.13;;;8.02;;
84834;SDS011;75078;42.636;23.198;2024-02-21T04:56:36;15.80;;;9.25;;
84834;SDS011;75078;42.636;23.198;2024-02-21T04:59:01;11.95;;;8.00;;
84834;SDS011;75078;42.636;23.198;2024-02-21T05:01:27;11.25;;;7.05;;
84834;SDS011;75078;42.636;23.198;2024-02-21T05:03:53;8.48;;;6.43;;
84834;SDS011;75078;42.636;23.198;2024-02-21T05:06:18;13.25;;;7.20;;
84834;SDS011;75078;42.636;23.198;2024-02-21T05:08:44;12.13;;;8.63;;
84834;SDS011;75078;42.636;23.198;2024-02-21T05:11:09;12.48;;;8.07;;
84834;SDS011;75078;42.636;23.198;2024-02-21T05:13:35;10.25;;;5.93;;
84834;SDS011;75078;42.636;23.198;2024-02-21T05:16:00;9.93;;;6.75;;
84834;SDS011;75078;42.636;23.198;2024-02-21T05:18:27;9.43;;;6.40;;
84834;SDS011;75078;42.636;23.198;2024-02-21T05:20:53;11.52;;;6.88;;
84834;SDS011;75078;42.636;23.198;2024-02-21T05:23:18;10.15;;;6.03;;
84834;SDS011;75078;42.636;23.198;2024-02-21T05:25:43;9.50;;;6.50;;
84834;SDS011;75078;42.636;23.198;2024-02-21T05:28:09;14.60;;;8.48;;
84834;SDS011;75078;42.636;23.198;2024-02-21T05:30:34;14.95;;;9.30;;
84834;SDS011;75078;42.636;23.198;2024-02-21T05:33:03;13.27;;;8.05;;
84834;SDS011;75078;42.636;23.198;2024-02-21T05:35:29;16.45;;;12.50;;
84834;SDS011;75078;42.636;23.198;2024-02-21T05:37:54;11.60;;;7.93;;
84834;SDS011;75078;42.636;23.198;2024-02-21T05:40:20;12.02;;;8.68;;
84834;SDS011;75078;42.636;23.198;2024-02-21T05:42:45;16.20;;;9.15;;
84834;SDS011;75078;42.636;23.198;2024-02-21T05:45:10;13.20;;;8.45;;
84834;SDS011;75078;42.636;23.198;2024-02-21T05:47:36;18.63;;;9.27;;
84834;SDS011;75078;42.636;23.198;2024-02-21T05:50:01;18.35;;;9.68;;
84834;SDS011;75078;42.636;23.198;2024-02-21T05:52:27;15.40;;;8.88;;
84834;SDS011;75078;42.636;23.198;2024-02-21T05:54:52;24.27;;;11.13;;
84834;SDS011;75078;42.636;23.198;2024-02-21T05:57:18;25.65;;;13.90;;
84834;SDS011;75078;42.636;23.198;2024-02-21T05:59:43;22.95;;;11.90;;
84834;SDS011;75078;42.636;23.198;2024-02-21T06:02:09;30.73;;;15.30;;
84834;SDS011;75078;42.636;23.198;2024-02-21T06:04:34;25.55;;;13.95;;
84834;SDS011;75078;42.636;23.198;2024-02-21T06:07:00;31.88;;;16.83;;
84834;SDS011;75078;42.636;23.198;2024-02-21T06:09:26;26.33;;;13.30;;
84834;SDS011;75078;42.636;23.198;2024-02-21T06:11:51;26.70;;;14.23;;
84834;SDS011;75078;42.636;23.198;2024-02-21T06:14:16;19.08;;;11.02;;
84834;SDS011;75078;42.636;23.198;2024-02-21T06:16:43;16.63;;;10.18;;
84834;SDS011;75078;42.636;23.198;2024-02-21T06:19:09;18.70;;;10.93;;
84834;SDS011;75078;42.636;23.198;2024-02-21T06:21:34;22.63;;;11.75;;
84834;SDS011;75078;42.636;23.198;2024-02-21T06:23:59;38.38;;;15.93;;
84834;SDS011;75078;42.636;23.198;2024-02-21T06:26:25;23.65;;;13.68;;
84834;SDS011;75078;42.636;23.198;2024-02-21T06:28:50;22.58;;;12.77;;
84834;SDS011;75078;42.636;23.198;2024-02-21T06:31:15;22.48;;;12.75;;
84834;SDS011;75078;42.636;23.198;2024-02-21T06:33:41;19.98;;;12.90;;
84834;SDS011;75078;42.636;23.198;2024-02-21T06:36:06;26.35;;;16.35;;
84834;SDS011;75078;42.636;23.198;2024-02-21T06:38:32;22.75;;;13.68;;
84834;SDS011;75078;42.636;23.198;2024-02-21T06:40:59;21.70;;;12.43;;
84834;SDS011;75078;42.636;23.198;2024-02-21T06:43:25;24.92;;;13.93;;
84834;SDS011;75078;42.636;23.198;2024-02-21T06:45:51;22.65;;;13.02;;
84834;SDS011;75078;42.636;23.198;2024-02-21T06:48:17;15.10;;;11.00;;
84834;SDS011;75078;42.636;23.198;2024-02-21T06:50:43;20.88;;;10.98;;
84834;SDS011;75078;42.636;23.198;2024-02-21T06:53:09;20.70;;;10.85;;
84834;SDS011;75078;42.636;23.198;2024-02-21T06:55:34;16.30;;;9.23;;
84834;SDS011;75078;42.636;23.198;2024-02-21T06:58:00;23.75;;;10.30;;
84834;SDS011;75078;42.636;23.198;2024-02-21T07:00:27;11.93;;;8.55;;
84834;SDS011;75078;42.636;23.198;2024-02-21T07:02:53;15.73;;;9.02;;
84834;SDS011;75078;42.636;23.198;2024-02-21T07:05:19;22.00;;;11.65;;
84834;SDS011;75078;42.636;23.198;2024-02-21T07:07:44;18.45;;;10.73;;
84834;SDS011;75078;42.636;23.198;2024-02-21T07:10:09;24.20;;;11.23;;
84834;SDS011;75078;42.636;23.198;2024-02-21T07:12:35;20.67;;;9.88;;
84834;SDS011;75078;42.636;23.198;2024-02-21T07:15:03;20.50;;;11.15;;
84834;SDS011;75078;42.636;23.198;2024-02-21T07:17:29;16.60;;;9.77;;
84834;SDS011;75078;42.636;23.198;2024-02-21T07:19:55;27.52;;;12.65;;
84834;SDS011;75078;42.636;23.198;2024-02-21T07:22:21;18.55;;;10.77;;
84834;SDS011;75078;42.636;23.198;2024-02-21T07:24:47;14.55;;;9.30;;
84834;SDS011;75078;42.636;23.198;2024-02-21T07:27:13;21.77;;;11.13;;
84834;SDS011;75078;42.636;23.198;2024-02-21T07:29:40;19.20;;;8.68;;
84834;SDS011;75078;42.636;23.198;2024-02-21T07:32:05;14.60;;;8.38;;
84834;SDS011;75078;42.636;23.198;2024-02-21T07:34:31;12.45;;;7.93;;
84834;SDS011;75078;42.636;23.198;2024-02-21T07:36:56;15.05;;;8.40;;
84834;SDS011;75078;42.636;23.198;2024-02-21T07:39:22;15.75;;;8.57;;
84834;SDS011;75078;42.636;23.198;2024-02-21T07:41:47;14.07;;;8.77;;
84834;SDS011;75078;42.636;23.198;2024-02-21T07:44:14;13.27;;;8.15;;
84834;SDS011;75078;42.636;23.198;2024-02-21T07:46:42;13.65;;;8.07;;
84834;SDS011;75078;42.636;23.198;2024-02-21T07:49:08;12.40;;;8.25;;
84834;SDS011;75078;42.636;23.198;2024-02-21T07:51:33;15.85;;;9.00;;
84834;SDS011;75078;42.636;23.198;2024-02-21T07:54:00;14.68;;;9.27;;
84834;SDS011;75078;42.636;23.198;2024-02-21T07:56:27;14.00;;;9.52;;
84834;SDS011;75078;42.636;23.198;2024-02-21T07:58:52;13.18;;;8.88;;
84834;SDS011;75078;42.636;23.198;2024-02-21T08:01:21;13.07;;;8.07;;
84834;SDS011;75078;42.636;23.198;2024-02-21T08:03:46;12.43;;;8.02;;
84834;SDS011;75078;42.636;23.198;2024-02-21T08:06:12;13.00;;;7.90;;
84834;SDS011;75078;42.636;23.198;2024-02-21T08:08:38;14.25;;;8.13;;
84834;SDS011;75078;42.636;23.198;2024-02-21T08:11:04;13.32;;;8.02;;
84834;SDS011;75078;42.636;23.198;2024-02-21T08:13:29;15.27;;;8.85;;
84834;SDS011;75078;42.636;23.198;2024-02-21T08:15:54;15.13;;;9.32;;
84834;SDS011;75078;42.636;23.198;2024-02-21T08:18:20;16.85;;;8.82;;
84834;SDS011;75078;42.636;23.198;2024-02-21T08:20:45;15.55;;;8.65;;
84834;SDS011;75078;42.636;23.198;2024-02-21T08:23:10;13.85;;;8.00;;
84834;SDS011;75078;42.636;23.198;2024-02-21T08:25:36;13.13;;;7.63;;
84834;SDS011;75078;42.636;23.198;2024-02-21T08:28:01;16.70;;;9.05;;
84834;SDS011;75078;42.636;23.198;2024-02-21T08:30:27;17.42;;;9.20;;
84834;SDS011;75078;42.636;23.198;2024-02-21T08:32:52;14.05;;;8.73;;
84834;SDS011;75078;42.636;23.198;2024-02-21T08:35:21;12.30;;;8.40;;
84834;SDS011;75078;42.636;23.198;2024-02-21T08:37:49;18.20;;;9.20;;
84834;SDS011;75078;42.636;23.198;2024-02-21T08:40:15;15.68;;;9.20;;
84834;SDS011;75078;42.636;23.198;2024-02-21T08:42:44;15.63;;;8.02;;
84834;SDS011;75078;42.636;23.198;2024-02-21T08:45:09;11.73;;;7.45;;
84834;SDS011;75078;42.636;23.198;2024-02-21T08:47:35;15.38;;;6.90;;
84834;SDS011;75078;42.636;23.198;2024-02-21T08:50:01;16.75;;;8.13;;
84834;SDS011;75078;42.636;23.198;2024-02-21T08:52:27;16.50;;;8.65;;
84834;SDS011;75078;42.636;23.198;2024-02-21T08:54:52;11.25;;;7.55;;
84834;SDS011;75078;42.636;23.198;2024-02-21T08:57:18;11.85;;;7.78;;
84834;SDS011;75078;42.636;23.198;2024-02-21T08:59:44;14.30;;;7.60;;
84834;SDS011;75078;42.636;23.198;2024-02-21T09:02:10;11.75;;;7.28;;
84834;SDS011;75078;42.636;23.198;2024-02-21T09:04:35;11.13;;;7.45;;
84834;SDS011;75078;42.636;23.198;2024-02-21T09:07:00;10.98;;;7.45;;
84834;SDS011;75078;42.636;23.198;2024-02-21T09:09:26;11.45;;;7.47;;
84834;SDS011;75078;42.636;23.198;2024-02-21T09:11:53;10.90;;;7.60;;
84834;SDS011;75078;42.636;23.198;2024-02-21T09:14:19;9.73;;;7.50;;
84834;SDS011;75078;42.636;23.198;2024-02-21T09:16:44;13.43;;;7.00;;
84834;SDS011;75078;42.636;23.198;2024-02-21T09:19:09;11.50;;;7.90;;
84834;SDS011;75078;42.636;23.198;2024-02-21T09:21:36;11.05;;;6.78;;
84834;SDS011;75078;42.636;23.198;2024-02-21T09:24:02;15.50;;;8.40;;
84834;SDS011;75078;42.636;23.198;2024-02-21T09:26:28;10.88;;;6.93;;
84834;SDS011;75078;42.636;23.198;2024-02-21T09:28:54;11.50;;;7.40;;
84834;SDS011;75078;42.636;23.198;2024-02-21T09:31:19;12.88;;;7.53;;
84834;SDS011;75078;42.636;23.198;2024-02-21T09:33:44;9.60;;;6.57;;
84834;SDS011;75078;42.636;23.198;2024-02-21T09:36:10;7.60;;;6.30;;
84834;SDS011;75078;42.636;23.198;2024-02-21T09:38:35;11.02;;;6.70;;
84834;SDS011;75078;42.636;23.198;2024-02-21T09:41:08;12.32;;;8.00;;
84834;SDS011;75078;42.636;23.198;2024-02-21T09:43:40;8.85;;;6.43;;
84834;SDS011;75078;42.636;23.198;2024-02-21T09:46:06;11.82;;;9.15;;
84834;SDS011;75078;42.636;23.198;2024-02-21T09:48:44;14.63;;;9.20;;
84834;SDS011;75078;42.636;23.198;2024-02-21T09:51:28;12.55;;;7.72;;
84834;SDS011;75078;42.636;23.198;2024-02-21T09:53:57;10.60;;;6.90;;
84834;SDS011;75078;42.636;23.198;2024-02-21T09:56:23;13.88;;;7.28;;
84834;SDS011;75078;42.636;23.198;2024-02-21T09:58:48;12.65;;;7.72;;
84834;SDS011;75078;42.636;23.198;2024-02-21T10:01:14;9.70;;;6.53;;
84834;SDS011;75078;42.636;23.198;2024-02-21T10:03:39;10.13;;;6.53;;
84834;SDS011;75078;42.636;23.198;2024-02-21T10:06:05;9.65;;;6.70;;
84834;SDS011;75078;42.636;23.198;2024-02-21T10:08:30;7.38;;;5.97;;
84834;SDS011;75078;42.636;23.198;2024-02-21T10:10:55;8.90;;;6.07;;
84834;SDS011;75078;42.636;23.198;2024-02-21T10:13:28;9.15;;;6.03;;
84834;SDS011;75078;42.636;23.198;2024-02-21T10:16:04;8.85;;;6.45;;
84834;SDS011;75078;42.636;23.198;2024-02-21T10:18:30;8.30;;;6.05;;
84834;SDS011;75078;42.636;23.198;2024-02-21T10:21:02;8.07;;;6.68;;
84834;SDS011;75078;42.636;23.198;2024-02-21T10:23:46;14.52;;;7.43;;
84834;SDS011;75078;42.636;23.198;2024-02-21T10:26:17;10.73;;;6.57;;
84834;SDS011;75078;42.636;23.198;2024-02-21T10:28:43;12.68;;;7.03;;
84834;SDS011;75078;42.636;23.198;2024-02-21T10:31:11;8.30;;;5.95;;
84834;SDS011;75078;42.636;23.198;2024-02-21T10:36:18;5.97;;;4.97;;
84834;SDS011;75078;42.636;23.198;2024-02-21T10:38:44;10.57;;;5.93;;
84834;SDS011;75078;42.636;23.198;2024-02-21T10:41:09;7.10;;;6.03;;
84834;SDS011;75078;42.636;23.198;2024-02-21T10:43:40;4.97;;;4.32;;
84834;SDS011;75078;42.636;23.198;2024-02-21T10:46:06;7.32;;;5.35;;
84834;SDS011;75078;42.636;23.198;2024-02-21T10:48:36;8.52;;;5.43;;
84834;SDS011;75078;42.636;23.198;2024-02-21T10:51:28;6.75;;;5.53;;
84834;SDS011;75078;42.636;23.198;2024-02-21T10:53:58;6.20;;;4.82;;
84834;SDS011;75078;42.636;23.198;2024-02-21T10:56:36;7.45;;;5.25;;
84834;SDS011;75078;42.636;23.198;2024-02-21T10:59:05;7.20;;;5.03;;
84834;SDS011;75078;42.636;23.198;2024-02-21T11:01:32;5.35;;;4.85;;
84834;SDS011;75078;42.636;23.198;2024-02-21T11:03:58;6.00;;;5.00;;
84834;SDS011;75078;42.636;23.198;2024-02-21T11:06:27;10.65;;;6.57;;
84834;SDS011;75078;42.636;23.198;2024-02-21T11:09:03;6.30;;;4.93;;
84834;SDS011;75078;42.636;23.198;2024-02-21T11:11:39;6.28;;;4.95;;
84834;SDS011;75078;42.636;23.198;2024-02-21T11:14:17;7.20;;;4.97;;
84834;SDS011;75078;42.636;23.198;2024-02-21T11:16:44;6.75;;;4.57;;
84834;SDS011;75078;42.636;23.198;2024-02-21T11:19:19;3.25;;;2.95;;
84834;SDS011;75078;42.636;23.198;2024-02-21T11:24:10;3.10;;;2.90;;
84834;SDS011;75078;42.636;23.198;2024-02-21T11:26:37;4.88;;;3.45;;
84834;SDS011;75078;42.636;23.198;2024-02-21T11:29:03;4.70;;;3.63;;
84834;SDS011;75078;42.636;23.198;2024-02-21T11:31:43;7.05;;;3.70;;
84834;SDS011;75078;42.636;23.198;2024-02-21T11:34:17;5.75;;;4.18;;
84834;SDS011;75078;42.636;23.198;2024-02-21T11:36:46;4.85;;;3.90;;
84834;SDS011;75078;42.636;23.198;2024-02-21T11:39:17;3.47;;;3.13;;
84834;SDS011;75078;42.636;23.198;2024-02-21T11:41:47;3.65;;;3.33;;
84834;SDS011;75078;42.636;23.198;2024-02-21T11:44:23;4.15;;;3.80;;
84834;SDS011;75078;42.636;23.198;2024-02-21T11:46:49;3.45;;;3.17;;
84834;SDS011;75078;42.636;23.198;2024-02-21T11:49:14;3.80;;;3.20;;
84834;SDS011;75078;42.636;23.198;2024-02-21T11:51:39;3.40;;;3.10;;
84834;SDS011;75078;42.636;23.198;2024-02-21T11:54:05;4.53;;;3.42;;
84834;SDS011;75078;42.636;23.198;2024-02-21T11:56:31;4.07;;;3.78;;
84834;SDS011;75078;42.636;23.198;2024-02-21T11:58:58;3.10;;;2.85;;
84834;SDS011;75078;42.636;23.198;2024-02-21T12:01:24;3.80;;;3.50;;
84834;SDS011;75078;42.636;23.198;2024-02-21T12:03:49;5.55;;;5.00;;
84834;SDS011;75078;42.636;23.198;2024-02-21T12:06:16;5.13;;;4.60;;
84834;SDS011;75078;42.636;23.198;2024-02-21T12:08:45;4.47;;;3.55;;
84834;SDS011;75078;42.636;23.198;2024-02-21T12:11:20;4.85;;;4.43;;
84834;SDS011;75078;42.636;23.198;2024-02-21T12:14:01;3.95;;;3.65;;
84834;SDS011;75078;42.636;23.198;2024-02-21T12:16:32;4.30;;;3.70;;
84834;SDS011;75078;42.636;23.198;2024-02-21T12:18:58;3.60;;;3.28;;
84834;SDS011;75078;42.636;23.198;2024-02-21T12:21:31;4.30;;;3.90;;
84834;SDS011;75078;42.636;23.198;2024-02-21T12:24:10;6.97;;;4.85;;
84834;SDS011;75078;42.636;23.198;2024-02-21T12:26:39;5.85;;;3.90;;
84834;SDS011;75078;42.636;23.198;2024-02-21T12:29:05;4.30;;;3.90;;
84834;SDS011;75078;42.636;23.198;2024-02-21T12:31:30;5.05;;;3.83;;
84834;SDS011;75078;42.636;23.198;2024-02-21T12:33:56;5.55;;;4.32;;
84834;SDS011;75078;42.636;23.198;2024-02-21T12:36:21;4.82;;;3.95;;
84834;SDS011;75078;42.636;23.198;2024-02-21T12:38:47;4.28;;;3.85;;
84834;SDS011;75078;42.636;23.198;2024-02-21T12:41:14;5.65;;;4.05;;
84834;SDS011;75078;42.636;23.198;2024-02-21T12:43:39;3.90;;;3.15;;
84834;SDS011;75078;42.636;23.198;2024-02-21T12:46:05;4.80;;;3.72;;
84834;SDS011;75078;42.636;23.198;2024-02-21T12:48:32;7.95;;;5.28;;
84834;SDS011;75078;42.636;23.198;2024-02-21T12:50:58;9.40;;;5.55;;
84834;SDS011;75078;42.636;23.198;2024-02-21T12:53:23;5.50;;;5.00;;
84834;SDS011;75078;42.636;23.198;2024-02-21T12:55:49;4.85;;;4.25;;
84834;SDS011;75078;42.636;23.198;2024-02-21T12:58:15;4.28;;;3.33;;
84834;SDS011;75078;42.636;23.198;2024-02-21T13:00:40;5.32;;;4.20;;
84834;SDS011;75078;42.636;23.198;2024-02-21T13:03:06;10.23;;;4.65;;
84834;SDS011;75078;42.636;23.198;2024-02-21T13:05:32;5.45;;;3.55;;
84834;SDS011;75078;42.636;23.198;2024-02-21T13:08:00;4.90;;;3.97;;
84834;SDS011;75078;42.636;23.198;2024-02-21T13:10:26;5.03;;;4.13;;
84834;SDS011;75078;42.636;23.198;2024-02-21T13:12:51;4.18;;;3.72;;
84834;SDS011;75078;42.636;23.198;2024-02-21T13:15:17;8.05;;;4.38;;
84834;SDS011;75078;42.636;23.198;2024-02-21T13:17:45;6.75;;;4.80;;
84834;SDS011;75078;42.636;23.198;2024-02-21T13:22:36;5.38;;;3.30;;
84834;SDS011;75078;42.636;23.198;2024-02-21T13:25:03;6.75;;;4.57;;
84834;SDS011;75078;42.636;23.198;2024-02-21T13:27:29;6.63;;;4.50;;
84834;SDS011;75078;42.636;23.198;2024-02-21T13:29:55;4.60;;;3.65;;
84834;SDS011;75078;42.636;23.198;2024-02-21T13:32:20;7.20;;;4.82;;
84834;SDS011;75078;42.636;23.198;2024-02-21T13:34:46;5.72;;;4.07;;
84834;SDS011;75078;42.636;23.198;2024-02-21T13:37:11;6.53;;;5.05;;
84834;SDS011;75078;42.636;23.198;2024-02-21T13:39:36;3.95;;;3.65;;
84834;SDS011;75078;42.636;23.198;2024-02-21T13:42:02;4.82;;;3.58;;
84834;SDS011;75078;42.636;23.198;2024-02-21T13:44:30;3.45;;;3.15;;
84834;SDS011;75078;42.636;23.198;2024-02-21T13:46:56;7.32;;;3.60;;
84834;SDS011;75078;42.636;23.198;2024-02-21T13:49:21;2.70;;;2.50;;
84834;SDS011;75078;42.636;23.198;2024-02-21T13:51:46;5.35;;;2.60;;
84834;SDS011;75078;42.636;23.198;2024-02-21T13:54:12;5.25;;;2.55;;
84834;SDS011;75078;42.636;23.198;2024-02-21T13:56:41;4.43;;;2.60;;
84834;SDS011;75078;42.636;23.198;2024-02-21T13:59:07;3.80;;;2.60;;
84834;SDS011;75078;42.636;23.198;2024-02-21T14:01:33;21.80;;;10.90;;
84834;SDS011;75078;42.636;23.198;2024-02-21T14:03:58;2.92;;;2.65;;
84834;SDS011;75078;42.636;23.198;2024-02-21T14:06:24;3.60;;;3.33;;
84834;SDS011;75078;42.636;23.198;2024-02-21T14:08:49;4.78;;;3.90;;
84834;SDS011;75078;42.636;23.198;2024-02-21T14:11:15;6.18;;;3.53;;
84834;SDS011;75078;42.636;23.198;2024-02-21T14:13:40;2.78;;;2.58;;
84834;SDS011;75078;42.636;23.198;2024-02-21T14:16:09;2.88;;;2.70;;
84834;SDS011;75078;42.636;23.198;2024-02-21T14:18:37;3.20;;;2.90;;
84834;SDS011;75078;42.636;23.198;2024-02-21T14:21:03;2.95;;;2.75;;
84834;SDS011;75078;42.636;23.198;2024-02-21T14:23:28;8.20;;;6.78;;
84834;SDS011;75078;42.636;23.198;2024-02-21T14:25:54;3.13;;;2.47;;
84834;SDS011;75078;42.636;23.198;2024-02-21T14:28:19;4.22;;;3.13;;
84834;SDS011;75078;42.636;23.198;2024-02-21T14:30:45;3.88;;;2.97;;